Summit, Pennsylvania
Current Conditions -  °F | °C
As of 10:56 PM on Sunday 23 Nov 2014 (Local Time) from KELZ Reporting Station
Overcast Overcast  
Wind Chill: 42°   Ceiling: 1800
Heat Index: 49°   Visibility: 10mi
Dew Point: 37°   Wind: 23mph
Humidity: 64%   Direction: 160°SSE
Pressure: 29.75"   Gusts: 35mph
Location:  41.7605°N, 77.9728°W
Report Text: KELZ 240356Z AUTO 16020G30KT 10SM OVC018 09/03 A2975 RMK AO2 PK WND 15030/0356 SLP080 T00940028
Loading
Personal Weather Stations






























Interactive Weather Map New forecast layout! Learn more

10-Day Weather Forecast

Advertisements
Track Severe Weather on mobile